International Virtual Aviation Organisation

Russian Federation and Kazakhstan MCD

 
UAUU 281000Z 35005MPS CAVOK M11/M13 Q1035 R33/490046 NOSIG RMK QFE760/1014
QNH:(hPa/inHg/mmHg)1035 / 30.56 / 776
QFE:(hPa/inHg/mmHg)1013 / 29.91 / 760
Temperature-11
Dew Point-13
Visibility> 10000
WeatherCAVOK
Cloud Cover
Transition Height10000 m./33500 ft.
Transition LevelFL350
SQUAWK